Dobrodošli na spletni strani vremenske postaje Senovo. Vse informacije so informativnega značaja, saj vremenska postaja ni del državne mreže meteoroloških postaj. AKTUALNIH OBVESTIL NI.


Sneg/Led Od: 21-02-2018 00:00 Do: 23-02-2018 23:59 Opozorilo za: Sneg/Led Stopnja: Rumena info button
Veter Od: 21-02-2018 00:00 Do: 22-02-2018 23:59 Opozorilo za: Veter Stopnja: Rumena info button

Pogled proti Armezu več informacij Pogled proti Armezu


Lisca več informacij Lisca


Radar strel več informacij blitzortung!


opozorilo za sneg/led več informacij rain snow radar


Obiščite še:

Template documentation
and downloads

And another site



Weather Underground, zgodovina - Tekstovno

Dnevni povzetek za Januar 9, 2017 Enote:  Angleško    Metrično   Obe
« Predhodni Dan
Naslednji Dan »
Dnevni Tedenski Mesečni Letni Po meri
  Višja: Nižja: Povprečje:
Temperatura: TemperatureC °F -14.5 °F -7.1 °F
Točka rosišča: DewpointC °F -17.7 °F -10.7 °F
Vlažnost: Humidity % 64 % 75 %
Hitrost vetra: WindSpeedKMH mph 0.0 mph 1.5 mph
Sunki vetra: WindSpeedGustKMH mph - -
Veter:- - SSE
Zračni tlak: PressurehPa in 1020.9 in -
Padavine: 0.0 in    
Historical Graphs
 
 
Tabelarni podarki za Januar 9, 2017
Čas Temperatura Točka rosišča Zračni tlak Veter Hitrost vetra Sunki vetra Vlažnost Intenziteta padavin (urna)
TemperatureC °F DewpointC °F PressurehPa in Calm     Humidity % HourlyPrecipMM in
00:03 -14.2 °F -17.7 °F 1024.9 in Calm   2.6 mph 75 % 0.0 in
00:08 -14.2 °F -17.7 °F 1024.9 in Calm     75 % 0.0 in
00:13 -14.2 °F -17.7 °F 1026.0 in Calm   3.5 mph 75 % 0.0 in
00:18 -14.0 °F -17.4 °F 1026.0 in NNW 0.2 mph 3.5 mph 75 % 0.0 in
00:23 -13.9 °F -17.4 °F 1026.0 in NNW 0.2 mph 2.6 mph 75 % 0.0 in
00:28 -13.6 °F -17.1 °F 1024.9 in Calm     75 % 0.0 in
00:33 -13.4 °F -16.9 °F 1024.9 in Calm     75 % 0.0 in
00:38 -13.2 °F -16.7 °F 1024.9 in Calm     75 % 0.0 in
00:43 -12.9 °F -16.4 °F 1024.9 in Calm     75 % 0.0 in
00:48 -12.7 °F -16.2 °F 1024.9 in Calm   4.0 mph 75 % 0.0 in
00:53 -12.5 °F -16.0 °F 1024.9 in NNW 0.6 mph 4.0 mph 75 % 0.0 in
00:58 -12.2 °F -15.7 °F 1024.9 in NNW 0.6 mph 3.5 mph 75 % 0.0 in
01:03 -12.0 °F -15.6 °F 1024.9 in Calm     75 % 0.0 in
01:08 -11.8 °F -15.3 °F 1024.9 in Calm     75 % 0.0 in
01:13 -11.6 °F -15.2 °F 1024.9 in Calm     75 % 0.0 in
01:18 -11.5 °F -15.1 °F 1024.9 in Calm     75 % 0.0 in
01:23 -11.3 °F -14.8 °F 1024.9 in Calm     75 % 0.0 in
01:29 -11.1 °F -14.7 °F 1024.9 in Calm     75 % 0.0 in
01:34 -11.0 °F -14.6 °F 1024.9 in Calm     75 % 0.0 in
01:39 -10.8 °F -14.4 °F 1024.9 in Calm     75 % 0.0 in
01:44 -10.7 °F -14.3 °F 1024.9 in Calm     75 % 0.0 in
01:49 -10.6 °F -14.2 °F 1024.9 in Calm     75 % 0.0 in
01:54 -10.4 °F -14.0 °F 1024.9 in Calm     75 % 0.0 in
01:59 -10.3 °F -13.9 °F 1024.9 in Calm     75 % 0.0 in
02:04 -10.2 °F -13.8 °F 1024.9 in Calm     75 % 0.0 in
02:09 -10.1 °F -13.7 °F 1024.9 in Calm     75 % 0.0 in
02:14 -10.1 °F -13.7 °F 1024.9 in Calm     75 % 0.0 in
02:19 -9.9 °F -12.7 °F 1024.9 in Calm     80 % 0.0 in
02:24 -9.9 °F -12.6 °F 1024.9 in Calm     81 % 0.0 in
02:29 -9.8 °F -12.4 °F 1023.9 in Calm     81 % 0.0 in
02:34 -9.7 °F -12.3 °F 1023.9 in Calm     81 % 0.0 in
02:39 -9.6 °F -12.3 °F 1023.9 in South 0.2 mph 2.6 mph 81 % 0.0 in
02:44 -9.5 °F -12.2 °F 1024.9 in South 0.2 mph 2.6 mph 81 % 0.0 in
02:49 -9.5 °F -12.2 °F 1024.9 in Calm     81 % 0.0 in
02:54 -9.4 °F -12.1 °F 1024.9 in Calm     81 % 0.0 in
02:59 -9.4 °F -12.1 °F 1023.9 in Calm     81 % 0.0 in
03:04 -9.3 °F -11.9 °F 1023.9 in Calm     81 % 0.0 in
03:09 -9.3 °F -11.9 °F 1023.9 in Calm     81 % 0.0 in
03:14 -9.2 °F -11.8 °F 1023.9 in Calm     81 % 0.0 in
03:19 -9.2 °F -11.8 °F 1023.9 in Calm     81 % 0.0 in
03:24 -9.2 °F -11.8 °F 1023.9 in Calm     81 % 0.0 in
03:29 -9.1 °F -11.8 °F 1023.9 in Calm     81 % 0.0 in
03:34 -9.1 °F -11.8 °F 1023.9 in Calm     81 % 0.0 in
03:39 -9.0 °F -11.7 °F 1023.9 in Calm     81 % 0.0 in
03:44 -9.0 °F -11.7 °F 1023.9 in Calm   1.8 mph 81 % 0.0 in
03:49 -8.9 °F -11.7 °F 1023.9 in South 0.8 mph 4.7 mph 80 % 0.0 in
03:54 -8.9 °F -11.7 °F 1023.9 in South 2.1 mph 4.7 mph 80 % 0.0 in
03:59 -8.8 °F -11.6 °F 1023.9 in SSW 2.7 mph 4.3 mph 80 % 0.0 in
04:04 -8.8 °F -11.6 °F 1023.9 in SSW 2.4 mph 4.3 mph 80 % 0.0 in
04:09 -8.8 °F -11.6 °F 1023.9 in SSW 1.9 mph 4.3 mph 80 % 0.0 in
04:14 -8.8 °F -11.6 °F 1023.9 in SSW 1.9 mph 3.5 mph 80 % 0.0 in
04:19 -8.7 °F -11.5 °F 1023.9 in SSW 1.9 mph 3.2 mph 80 % 0.0 in
04:24 -8.8 °F -11.6 °F 1023.9 in SSW 1.3 mph 2.6 mph 80 % 0.0 in
04:29 -8.9 °F -11.7 °F 1023.9 in SSW 1.4 mph 3.2 mph 80 % 0.0 in
04:34 -9.1 °F -12.1 °F 1023.9 in SSW 2.6 mph 4.0 mph 79 % 0.0 in
04:39 -9.3 °F -12.3 °F 1023.9 in SW 2.9 mph 4.0 mph 79 % 0.0 in
04:44 -9.7 °F -12.8 °F 1023.9 in SW 1.6 mph 4.0 mph 78 % 0.0 in
04:49 -9.9 °F -13.2 °F 1023.9 in Calm     77 % 0.0 in
04:54 -10.3 °F -13.6 °F 1023.9 in Calm     77 % 0.0 in
05:00 -10.7 °F -13.9 °F 1023.9 in Calm     77 % 0.0 in
05:05 -11.0 °F -14.2 °F 1023.9 in Calm   2.6 mph 77 % 0.0 in
05:10 -11.4 °F -14.6 °F 1023.9 in SW 0.3 mph 2.6 mph 77 % 0.0 in
05:15 -11.6 °F -14.8 °F 1023.9 in SW 1.1 mph 3.5 mph 77 % 0.0 in
05:20 -11.8 °F -15.0 °F 1023.9 in SW 1.0 mph 3.5 mph 77 % 0.0 in
05:25 -12.0 °F -15.2 °F 1023.9 in SW 0.6 mph 3.2 mph 77 % 0.0 in
05:30 -12.1 °F -15.3 °F 1023.9 in WSW 0.6 mph 3.5 mph 77 % 0.0 in
05:35 -12.4 °F -15.6 °F 1023.9 in SW 1.1 mph 3.5 mph 77 % 0.0 in
05:40 -12.6 °F -15.8 °F 1023.9 in SSW 1.1 mph 4.0 mph 77 % 0.0 in
05:45 -12.7 °F -15.9 °F 1023.9 in WNW 1.3 mph 4.0 mph 77 % 0.0 in
05:50 -12.9 °F -16.1 °F 1023.9 in NNW 1.1 mph 2.6 mph 77 % 0.0 in
05:55 -13.0 °F -16.2 °F 1023.9 in NNW 0.2 mph 1.8 mph 77 % 0.0 in
06:00 -13.1 °F -16.3 °F 1023.9 in Calm     77 % 0.0 in
06:05 -13.3 °F -16.5 °F 1023.9 in NNW 0.5 mph 3.2 mph 77 % 0.0 in
06:10 -13.3 °F -16.5 °F 1023.9 in NNW 1.0 mph 3.2 mph 77 % 0.0 in
06:15 -13.4 °F -16.6 °F 1023.9 in NNW 0.6 mph 2.6 mph 77 % 0.0 in
06:20 -13.5 °F -16.7 °F 1023.9 in Calm     77 % 0.0 in
06:25 -13.6 °F -16.8 °F 1023.9 in Calm     77 % 0.0 in
06:30 -13.6 °F -16.8 °F 1023.9 in Calm     77 % 0.0 in
06:35 -13.8 °F -16.9 °F 1023.9 in Calm     77 % 0.0 in
06:40 -13.8 °F -16.9 °F 1023.9 in Calm     77 % 0.0 in
06:45 -13.9 °F -17.1 °F 1023.9 in Calm     77 % 0.0 in
06:50 -14.0 °F -17.2 °F 1023.9 in Calm     77 % 0.0 in
06:55 -14.0 °F -17.2 °F 1023.9 in NNW 0.6 mph 3.2 mph 77 % 0.0 in
07:00 -14.1 °F -17.3 °F 1023.9 in NNW 0.6 mph 3.2 mph 77 % 0.0 in
07:05 -14.2 °F -17.3 °F 1023.9 in Calm     77 % 0.0 in
07:10 -14.2 °F -17.3 °F 1022.9 in Calm     77 % 0.0 in
07:15 -14.2 °F -17.3 °F 1022.9 in Calm     77 % 0.0 in
07:20 -14.3 °F -17.4 °F 1022.9 in Calm     77 % 0.0 in
07:25 -14.3 °F -17.4 °F 1023.9 in Calm     77 % 0.0 in
07:30 -14.4 °F -17.6 °F 1023.9 in Calm     77 % 0.0 in
07:35 -14.4 °F -17.6 °F 1023.9 in Calm     77 % 0.0 in
07:40 -14.4 °F -17.6 °F 1023.9 in Calm     77 % 0.0 in
07:45 -14.5 °F -17.7 °F 1023.9 in Calm     77 % 0.0 in
07:50 -14.5 °F -17.7 °F 1023.9 in Calm     77 % 0.0 in
07:55 -14.5 °F -17.7 °F 1022.9 in Calm     77 % 0.0 in
08:00 -14.5 °F -17.7 °F 1022.9 in Calm     77 % 0.0 in
08:05 -14.5 °F -17.7 °F 1022.9 in NNW 0.2 mph 2.1 mph 77 % 0.0 in
08:10 -14.5 °F -17.7 °F 1022.9 in NNW 0.3 mph 2.1 mph 77 % 0.0 in
08:15 -14.4 °F -17.6 °F 1022.9 in NNW 0.2 mph 2.1 mph 77 % 0.0 in
08:20 -14.3 °F -17.4 °F 1022.9 in Calm   1.4 mph 77 % 0.0 in
08:26 -14.3 °F -17.4 °F 1022.9 in NNW 0.2 mph 2.6 mph 77 % 0.0 in
08:31 -14.2 °F -17.3 °F 1022.9 in NNW 0.2 mph 2.6 mph 77 % 0.0 in
08:36 -14.2 °F -17.3 °F 1022.9 in Calm     77 % 0.0 in
08:41 -14.0 °F -17.2 °F 1022.9 in Calm     77 % 0.0 in
08:46 -13.9 °F -17.1 °F 1022.9 in Calm     77 % 0.0 in
08:51 -13.8 °F -16.9 °F 1022.9 in Calm     77 % 0.0 in
08:56 -13.6 °F -16.8 °F 1022.9 in Calm     77 % 0.0 in
09:01 -13.4 °F -16.6 °F 1022.9 in Calm     77 % 0.0 in
09:06 -13.1 °F -16.3 °F 1022.9 in Calm     77 % 0.0 in
09:11 -13.0 °F -16.2 °F 1023.9 in Calm     77 % 0.0 in
09:16 -12.7 °F -15.9 °F 1023.9 in NNW 0.5 mph 3.2 mph 77 % 0.0 in
09:21 -12.5 °F -15.7 °F 1023.9 in NNW 0.5 mph 3.2 mph 77 % 0.0 in
09:26 -12.3 °F -15.5 °F 1023.9 in Calm     77 % 0.0 in
09:31 -12.1 °F -15.3 °F 1023.9 in NNW 1.1 mph 4.3 mph 77 % 0.0 in
09:36 -11.8 °F -15.0 °F 1023.9 in North 3.2 mph 5.5 mph 77 % 0.0 in
09:41 -11.6 °F -14.8 °F 1023.9 in NE 2.9 mph 5.5 mph 77 % 0.0 in
09:46 -11.3 °F -14.6 °F 1023.9 in NE 0.8 mph 3.5 mph 77 % 0.0 in
09:51 -11.0 °F -14.2 °F 1023.9 in ENE 0.3 mph 2.6 mph 77 % 0.0 in
09:56 -10.8 °F -14.1 °F 1023.9 in East 0.3 mph 3.2 mph 77 % 0.0 in
10:01 -10.6 °F -13.8 °F 1023.9 in ESE 1.6 mph 4.7 mph 77 % 0.0 in
10:06 -10.3 °F -13.6 °F 1023.9 in ESE 2.3 mph 4.7 mph 77 % 0.0 in
10:11 -10.1 °F -13.4 °F 1022.9 in ESE 0.5 mph 3.2 mph 77 % 0.0 in
10:16 -9.8 °F -12.6 °F 1022.9 in Calm     80 % 0.0 in
10:21 -9.5 °F -12.3 °F 1022.9 in ESE 0.5 mph 3.5 mph 80 % 0.0 in
10:26 -9.4 °F -12.2 °F 1023.9 in ESE 0.5 mph 3.5 mph 80 % 0.0 in
10:31 -9.2 °F -12.0 °F 1023.9 in Calm   2.1 mph 80 % 0.0 in
10:36 -8.9 °F -11.7 °F 1023.9 in SSE 0.5 mph 4.0 mph 80 % 0.0 in
10:41 -8.5 °F -11.3 °F 1023.9 in ESE 1.3 mph 4.0 mph 80 % 0.0 in
10:46 -8.3 °F -11.1 °F 1023.9 in ESE 1.4 mph 3.5 mph 80 % 0.0 in
10:51 -8.0 °F -10.8 °F 1023.9 in ESE 0.6 mph 3.5 mph 80 % 0.0 in
10:56 -7.7 °F -10.6 °F 1023.9 in Calm     80 % 0.0 in
11:01 -7.5 °F -10.3 °F 1023.9 in Calm     80 % 0.0 in
11:06 -7.4 °F -10.3 °F 1023.9 in SSE 0.2 mph 3.5 mph 80 % 0.0 in
11:11 -7.1 °F -10.1 °F 1023.9 in SE 0.8 mph 3.5 mph 79 % 0.0 in
11:16 -6.9 °F -9.9 °F 1023.9 in SE 0.5 mph 3.5 mph 79 % 0.0 in
11:21 -6.7 °F -9.7 °F 1023.9 in ESE 0.6 mph 3.5 mph 79 % 0.0 in
11:26 -6.5 °F -9.6 °F 1022.9 in ESE 1.1 mph 4.3 mph 79 % 0.0 in
11:31 -6.1 °F -9.2 °F 1022.9 in SE 0.8 mph 4.3 mph 79 % 0.0 in
11:36 -5.7 °F -8.9 °F 1022.9 in SE 0.3 mph 3.5 mph 78 % 0.0 in
11:41 -5.2 °F -8.3 °F 1021.9 in Calm     79 % 0.0 in
11:46 -4.7 °F -7.9 °F 1021.9 in SSE 1.1 mph 5.8 mph 78 % 0.0 in
11:51 -4.4 °F -7.7 °F 1021.9 in SE 3.1 mph 5.8 mph 78 % 0.0 in
11:56 -4.0 °F -7.3 °F 1021.9 in SE 2.6 mph 5.8 mph 78 % 0.0 in
12:01 -3.8 °F -7.2 °F 1021.9 in ESE 2.1 mph 6.9 mph 77 % 0.0 in
12:07 -3.7 °F -7.3 °F 1021.9 in ESE 3.4 mph 6.9 mph 76 % 0.0 in
12:11 -3.4 °F -7.2 °F 1020.9 in SE 2.7 mph 5.8 mph 75 % 0.0 in
12:17 -3.3 °F -7.1 °F 1020.9 in SSE 1.0 mph 4.0 mph 75 % 0.0 in
12:22 -3.2 °F -7.2 °F 1020.9 in Calm   4.7 mph 74 % 0.0 in
12:26 -3.0 °F -7.0 °F 1020.9 in South 1.9 mph 6.1 mph 74 % 0.0 in
12:32 -2.8 °F -6.9 °F 1020.9 in South 4.0 mph 6.1 mph 73 % 0.0 in
12:37 -2.6 °F -6.8 °F 1020.9 in South 3.7 mph 5.5 mph 73 % 0.0 in
12:42 -2.4 °F -6.6 °F 1021.9 in SSW 3.9 mph 6.4 mph 73 % 0.0 in
12:47 -2.3 °F -6.7 °F 1021.9 in SSW 4.5 mph 6.4 mph 72 % 0.0 in
12:52 -2.2 °F -6.8 °F 1021.9 in South 3.9 mph 6.4 mph 71 % 0.0 in
12:57 -2.0 °F -6.6 °F 1021.9 in SE 2.1 mph 4.3 mph 71 % 0.0 in
13:02 -1.8 °F -6.4 °F 1021.9 in SSE 1.1 mph 3.5 mph 71 % 0.0 in
13:07 -1.8 °F -6.6 °F 1021.9 in South 1.1 mph 4.3 mph 70 % 0.0 in
13:12 -1.9 °F -6.7 °F 1021.9 in South 2.6 mph 6.9 mph 70 % 0.0 in
13:17 -2.0 °F -6.7 °F 1021.9 in SSW 4.5 mph 6.9 mph 70 % 0.0 in
13:22 -2.1 °F -7.1 °F 1021.9 in SSW 4.2 mph 6.4 mph 69 % 0.0 in
13:27 -2.2 °F -7.1 °F 1020.9 in SSW 3.4 mph 5.0 mph 69 % 0.0 in
13:32 -2.2 °F -7.1 °F 1020.9 in SSW 2.9 mph 5.0 mph 69 % 0.0 in
13:37 -2.2 °F -7.1 °F 1020.9 in SSW 3.1 mph 5.0 mph 69 % 0.0 in
13:42 -2.2 °F -7.1 °F 1020.9 in SSW 3.5 mph 5.5 mph 69 % 0.0 in
13:47 -2.2 °F -7.1 °F 1020.9 in SSW 3.4 mph 5.5 mph 69 % 0.0 in
13:52 -2.2 °F -7.1 °F 1020.9 in SW 3.1 mph 5.5 mph 69 % 0.0 in
13:57 -2.3 °F -7.2 °F 1020.9 in SSW 3.1 mph 6.1 mph 69 % 0.0 in
14:02 -2.2 °F -7.1 °F 1020.9 in SSE 2.1 mph 6.1 mph 69 % 0.0 in
14:07 -2.3 °F -7.2 °F 1020.9 in ESE 1.8 mph 7.9 mph 69 % 0.0 in
14:12 -2.2 °F -7.1 °F 1020.9 in SE 3.5 mph 7.9 mph 69 % 0.0 in
14:17 -2.2 °F -7.1 °F 1020.9 in SE 4.0 mph 6.4 mph 69 % 0.0 in
14:22 -2.1 °F -7.1 °F 1020.9 in SE 3.4 mph 5.8 mph 69 % 0.0 in
14:27 -2.1 °F -7.1 °F 1020.9 in SE 4.3 mph 7.9 mph 69 % 0.0 in
14:32 -2.1 °F -7.1 °F 1020.9 in SE 5.1 mph 7.9 mph 69 % 0.0 in
14:37 -2.1 °F -7.1 °F 1020.9 in SE 4.5 mph 6.9 mph 69 % 0.0 in
14:42 -2.1 °F -7.1 °F 1020.9 in SSE 2.7 mph 5.0 mph 69 % 0.0 in
14:47 -2.1 °F -7.1 °F 1020.9 in SSE 2.7 mph 5.8 mph 69 % 0.0 in
14:52 -2.1 °F -7.1 °F 1020.9 in SSE 4.2 mph 5.8 mph 69 % 0.0 in
14:57 -2.1 °F -7.1 °F 1021.9 in SE 4.0 mph 5.8 mph 69 % 0.0 in
15:02 -2.1 °F -7.1 °F 1021.9 in SE 3.5 mph 6.1 mph 69 % 0.0 in
15:07 -2.2 °F -7.1 °F 1021.9 in SE 2.4 mph 6.1 mph 69 % 0.0 in
15:12 -2.2 °F -7.1 °F 1021.9 in ESE 3.5 mph 7.6 mph 69 % 0.0 in
15:17 -2.3 °F -7.2 °F 1021.9 in ESE 4.7 mph 7.6 mph 69 % 0.0 in
15:22 -2.3 °F -7.2 °F 1021.9 in ESE 4.0 mph 6.9 mph 69 % 0.0 in
15:23 -2.3 °F -7.2 °F 1021.9 in ESE 4.0 mph 6.9 mph 69 % 0.0 in
15:28 -2.4 °F -7.3 °F 1022.9 in ESE 4.5 mph 10.5 mph 69 % 0.0 in
15:32 -2.5 °F -7.2 °F 1022.9 in ESE 5.5 mph 10.5 mph 70 % 0.0 in
15:37 -2.6 °F -7.3 °F 1022.9 in East 5.8 mph 10.5 mph 70 % 0.0 in
15:42 -2.7 °F -7.4 °F 1020.9 in East 5.5 mph 12.2 mph 70 % 0.0 in
15:48 -2.8 °F -7.5 °F 1020.9 in East 6.0 mph 12.2 mph 70 % 0.0 in
15:53 -2.8 °F -7.5 °F 1020.9 in East 6.6 mph 12.2 mph 70 % 0.0 in
15:58 -2.8 °F -7.3 °F 1020.9 in East 5.0 mph 9.0 mph 71 % 0.0 in
16:03 -2.9 °F -7.4 °F 1020.9 in ESE 2.6 mph 9.0 mph 71 % 0.0 in
16:08 -2.9 °F -7.4 °F 1020.9 in ESE 2.1 mph 6.1 mph 71 % 0.0 in
16:13 -2.9 °F -7.4 °F 1021.9 in ESE 3.1 mph 6.1 mph 71 % 0.0 in
16:18 -2.9 °F -7.4 °F 1021.9 in ESE 3.7 mph 7.6 mph 71 % 0.0 in
16:23 -3.0 °F -7.5 °F 1021.9 in SE 2.6 mph 7.6 mph 71 % 0.0 in
16:28 -3.0 °F -7.3 °F 1021.9 in East 2.1 mph 5.5 mph 72 % 0.0 in
16:33 -3.0 °F -7.3 °F 1021.9 in ESE 3.1 mph 6.1 mph 72 % 0.0 in
16:38 -3.0 °F -7.3 °F 1021.9 in SSE 2.7 mph 6.1 mph 72 % 0.0 in
16:43 -3.0 °F -7.3 °F 1021.9 in South 2.4 mph 4.3 mph 72 % 0.0 in
16:48 -3.1 °F -7.4 °F 1021.9 in SSW 1.0 mph 4.3 mph 72 % 0.0 in
16:53 -3.1 °F -7.4 °F 1021.9 in WSW 0.3 mph 2.6 mph 72 % 0.0 in
16:58 -3.1 °F -7.3 °F 1021.9 in WSW 0.3 mph 2.6 mph 73 % 0.0 in
17:03 -3.2 °F -7.3 °F 1021.9 in SSW 0.5 mph 4.7 mph 73 % 0.0 in
17:08 -3.2 °F -7.3 °F 1021.9 in SSW 1.6 mph 4.7 mph 73 % 0.0 in
17:13 -3.2 °F -7.3 °F 1021.9 in South 1.1 mph 4.3 mph 73 % 0.0 in
17:18 -3.2 °F -7.3 °F 1021.9 in SSE 0.6 mph 4.3 mph 73 % 0.0 in
17:23 -3.2 °F -7.2 °F 1021.9 in SSE 1.0 mph 4.3 mph 74 % 0.0 in
17:28 -3.2 °F -7.2 °F 1021.9 in SSW 0.2 mph 3.5 mph 74 % 0.0 in
17:33 -3.3 °F -7.3 °F 1021.9 in Calm     74 % 0.0 in
17:38 -3.3 °F -7.3 °F 1021.9 in Calm     74 % 0.0 in
17:43 -3.3 °F -7.3 °F 1021.9 in SSW 0.5 mph 4.0 mph 74 % 0.0 in
17:48 -3.3 °F -7.1 °F 1021.9 in SSW 1.6 mph 4.0 mph 75 % 0.0 in
17:53 -3.3 °F -7.1 °F 1021.9 in SSW 2.4 mph 4.0 mph 75 % 0.0 in
17:58 -3.3 °F -7.1 °F 1021.9 in SSW 1.3 mph 4.0 mph 75 % 0.0 in
18:03 -3.4 °F -7.2 °F 1021.9 in Calm     75 % 0.0 in
18:08 -3.4 °F -7.2 °F 1021.9 in Calm     75 % 0.0 in
18:13 -3.4 °F -7.0 °F 1021.9 in Calm     76 % 0.0 in
18:18 -3.4 °F -7.0 °F 1021.9 in Calm     76 % 0.0 in
18:23 -3.5 °F -7.1 °F 1021.9 in Calm   1.4 mph 76 % 0.0 in
18:29 -3.5 °F -7.1 °F 1021.9 in Calm   1.4 mph 76 % 0.0 in
18:34 -3.5 °F -7.1 °F 1021.9 in SW 0.3 mph 4.0 mph 76 % 0.0 in
18:39 -3.4 °F -7.0 °F 1021.9 in SSW 1.9 mph 4.7 mph 76 % 0.0 in
18:44 -3.4 °F -7.0 °F 1021.9 in South 1.6 mph 4.7 mph 76 % 0.0 in
18:49 -3.5 °F -7.1 °F 1021.9 in ESE 0.2 mph 2.6 mph 76 % 0.0 in
18:54 -3.5 °F -7.1 °F 1021.9 in Calm     76 % 0.0 in
18:59 -3.4 °F -6.8 °F 1021.9 in SSW 0.6 mph 3.5 mph 77 % 0.0 in
19:04 -3.5 °F -6.9 °F 1021.9 in SSW 1.0 mph 3.5 mph 77 % 0.0 in
19:09 -3.5 °F -6.9 °F 1021.9 in North 0.3 mph   77 % 0.0 in
19:14 -3.5 °F -6.9 °F 1021.9 in Calm     77 % 0.0 in
19:19 -3.5 °F -6.9 °F 1021.9 in Calm     77 % 0.0 in
19:24 -3.5 °F -6.9 °F 1021.9 in Calm     77 % 0.0 in
19:29 -3.5 °F -6.9 °F 1021.9 in SE 1.3 mph 5.0 mph 77 % 0.0 in
19:34 -3.5 °F -6.9 °F 1021.9 in SE 1.4 mph 5.0 mph 77 % 0.0 in
19:39 -3.5 °F -6.9 °F 1021.9 in WSW 0.6 mph 3.2 mph 77 % 0.0 in
19:40 -3.5 °F -6.9 °F 1021.9 in WSW 0.6 mph 3.2 mph 77 % 0.0 in
19:45 -3.5 °F -6.8 °F 1022.9 in WSW 0.5 mph 3.2 mph 78 % 0.0 in
19:50 -3.5 °F -6.9 °F 1022.9 in Calm     77 % 0.0 in
19:55 -3.5 °F -6.8 °F 1021.9 in SSW 0.5 mph 3.2 mph 78 % 0.0 in
20:00 -3.5 °F -6.8 °F 1021.9 in SSW 0.6 mph 3.2 mph 78 % 0.0 in
20:05 -3.5 °F -6.8 °F 1021.9 in SSW 0.3 mph 1.4 mph 78 % 0.0 in
20:10 -3.5 °F -6.8 °F 1021.9 in Calm     78 % 0.0 in
20:15 -3.5 °F -6.8 °F 1021.9 in Calm     78 % 0.0 in
20:20 -3.5 °F -6.8 °F 1021.9 in Calm     78 % 0.0 in
20:25 -3.5 °F -6.8 °F 1021.9 in SSW 0.3 mph 4.0 mph 78 % 0.0 in
20:30 -3.5 °F -6.8 °F 1021.9 in SSW 0.5 mph 4.0 mph 78 % 0.0 in
20:35 -3.5 °F -6.8 °F 1021.9 in ESE 0.3 mph 2.1 mph 78 % 0.0 in
20:40 -3.5 °F -6.6 °F 1020.9 in ESE 0.2 mph 2.1 mph 79 % 0.0 in
20:45 -3.5 °F -6.6 °F 1020.9 in Calm     79 % 0.0 in
20:50 -3.5 °F -6.6 °F 1020.9 in Calm     79 % 0.0 in
20:55 -3.6 °F -6.7 °F 1021.9 in Calm     79 % 0.0 in
21:00 -3.6 °F -6.7 °F 1021.9 in Calm     79 % 0.0 in
21:05 -3.6 °F -6.7 °F 1021.9 in Calm     79 % 0.0 in
21:10 -3.6 °F -6.7 °F 1021.9 in Calm     79 % 0.0 in
21:15 -3.6 °F -6.7 °F 1021.9 in ESE 0.3 mph 6.1 mph 79 % 0.0 in
21:20 -3.5 °F -6.6 °F 1021.9 in SE 2.1 mph 6.9 mph 79 % 0.0 in
21:25 -3.5 °F -6.6 °F 1020.9 in SE 3.9 mph 8.7 mph 79 % 0.0 in
21:30 -3.4 °F -6.7 °F 1020.9 in SE 4.3 mph 8.7 mph 78 % 0.0 in
21:35 -3.4 °F -6.7 °F 1020.9 in SE 3.4 mph 6.1 mph 78 % 0.0 in
21:40 -3.4 °F -6.7 °F 1021.9 in SSE 2.9 mph 5.5 mph 78 % 0.0 in
21:45 -3.4 °F -6.7 °F 1021.9 in SSE 3.1 mph 4.7 mph 78 % 0.0 in
21:50 -3.4 °F -6.7 °F 1021.9 in SSE 3.2 mph 4.7 mph 78 % 0.0 in
21:55 -3.4 °F -6.7 °F 1021.9 in South 2.9 mph 4.7 mph 78 % 0.0 in
22:00 -3.4 °F -6.7 °F 1021.9 in SSE 1.3 mph 4.7 mph 78 % 0.0 in
22:05 -3.4 °F -6.7 °F 1021.9 in SE 0.6 mph 4.3 mph 78 % 0.0 in
22:10 -3.4 °F -6.7 °F 1021.9 in SE 2.1 mph 5.0 mph 78 % 0.0 in
22:16 -3.4 °F -6.7 °F 1021.9 in ESE 3.7 mph 8.7 mph 78 % 0.0 in
22:20 -3.4 °F -6.7 °F 1021.9 in ESE 4.3 mph 8.7 mph 78 % 0.0 in
22:25 -3.4 °F -6.8 °F 1020.9 in ESE 3.9 mph 6.1 mph 77 % 0.0 in
22:30 -3.4 °F -6.8 °F 1020.9 in ESE 4.0 mph 6.9 mph 77 % 0.0 in
22:35 -3.4 °F -6.8 °F 1020.9 in East 4.2 mph 6.9 mph 77 % 0.0 in
22:41 -3.4 °F -6.8 °F 1020.9 in ENE 3.4 mph 10.5 mph 77 % 0.0 in
22:46 -3.3 °F -7.1 °F 1020.9 in ENE 4.7 mph 10.8 mph 75 % 0.0 in
22:51 -3.3 °F -7.8 °F 1020.9 in ENE 6.9 mph 11.9 mph 71 % 0.0 in
22:56 -3.3 °F -7.8 °F 1021.9 in ENE 6.6 mph 11.9 mph 71 % 0.0 in
23:01 -3.3 °F -8.0 °F 1021.9 in ENE 5.3 mph 9.3 mph 70 % 0.0 in
23:06 -3.3 °F -8.2 °F 1021.9 in ENE 6.6 mph 12.2 mph 69 % 0.0 in
23:11 -3.4 °F -8.4 °F 1021.9 in ENE 8.0 mph 12.2 mph 68 % 0.0 in
23:16 -3.4 °F -8.8 °F 1021.9 in ENE 7.9 mph 12.2 mph 66 % 0.0 in
23:21 -3.4 °F -8.8 °F 1021.9 in ENE 7.1 mph 12.2 mph 66 % 0.0 in
23:26 -3.4 °F -8.7 °F 1021.9 in East 5.6 mph 11.6 mph 67 % 0.0 in
23:31 -3.4 °F -8.8 °F 1021.9 in East 5.6 mph 10.1 mph 66 % 0.0 in
23:36 -3.4 °F -8.8 °F 1021.9 in ENE 7.1 mph 11.9 mph 66 % 0.0 in
23:41 -3.5 °F -9.1 °F 1020.9 in ENE 7.1 mph 11.9 mph 65 % 0.0 in
23:46 -3.5 °F -9.3 °F 1020.9 in East 6.3 mph 10.5 mph 64 % 0.0 in
23:51 -3.5 °F -9.3 °F 1020.9 in East 5.6 mph 9.0 mph 64 % 0.0 in
23:56 -3.5 °F -9.3 °F 1020.9 in East 6.6 mph 11.6 mph 64 % 0.0 in
Vremenska postaja Senovo
Podatki zbrani iz Weather Underground - 3 mb

Script developed by  Jim McMurry - jmcmurry@mwt.net Adapted for the template by  Wim van der Kuil - Leuven-Template.eu

Vremenski podatki so objavljeni na:

European Weather Network

WeatherCloud

Weather Underground

AWEKAS

HAMweather, WeatherForYou, PWS Weather

MapView

Geostik

Slovenia weather network

Oprema, ki se uporablja:

Vremenski program
Cumulus

Vremenski server
Asus

Cumulus

Asus